sensor_id;sensor_type;location;lat;lon;timestamp;P1;durP1;ratioP1;P2;durP2;ratioP2
6013;SDS011;3035;49.928;8.410;2022-09-09T00:00:31;5.50;;;1.77;;
6013;SDS011;3035;49.928;8.410;2022-09-09T00:03:04;4.23;;;1.10;;
6013;SDS011;3035;49.928;8.410;2022-09-09T00:05:36;4.17;;;1.63;;
6013;SDS011;3035;49.928;8.410;2022-09-09T00:08:07;2.03;;;1.40;;
6013;SDS011;3035;49.928;8.410;2022-09-09T00:10:38;2.57;;;1.07;;
6013;SDS011;3035;49.928;8.410;2022-09-09T00:18:47;12.00;;;1.37;;
6013;SDS011;3035;49.928;8.410;2022-09-09T00:21:34;4.87;;;1.43;;
6013;SDS011;3035;49.928;8.410;2022-09-09T00:24:10;6.70;;;1.40;;
6013;SDS011;3035;49.928;8.410;2022-09-09T00:26:38;5.50;;;1.70;;
6013;SDS011;3035;49.928;8.410;2022-09-09T00:29:20;23.23;;;1.87;;
6013;SDS011;3035;49.928;8.410;2022-09-09T00:31:51;3.47;;;1.33;;
6013;SDS011;3035;49.928;8.410;2022-09-09T00:34:21;4.30;;;1.40;;
6013;SDS011;3035;49.928;8.410;2022-09-09T00:36:49;1.80;;;0.97;;
6013;SDS011;3035;49.928;8.410;2022-09-09T00:39:22;7.23;;;1.63;;
6013;SDS011;3035;49.928;8.410;2022-09-09T00:48:06;10.87;;;1.40;;
6013;SDS011;3035;49.928;8.410;2022-09-09T00:50:39;2.07;;;1.30;;
6013;SDS011;3035;49.928;8.410;2022-09-09T00:56:07;2.70;;;1.20;;
6013;SDS011;3035;49.928;8.410;2022-09-09T00:58:46;3.57;;;1.33;;
6013;SDS011;3035;49.928;8.410;2022-09-09T01:01:12;5.47;;;1.70;;
6013;SDS011;3035;49.928;8.410;2022-09-09T01:03:49;11.43;;;1.30;;
6013;SDS011;3035;49.928;8.410;2022-09-09T01:06:29;4.00;;;2.10;;
6013;SDS011;3035;49.928;8.410;2022-09-09T01:14:39;11.43;;;1.63;;
6013;SDS011;3035;49.928;8.410;2022-09-09T01:17:15;5.63;;;1.50;;
6013;SDS011;3035;49.928;8.410;2022-09-09T01:19:54;5.70;;;1.43;;
6013;SDS011;3035;49.928;8.410;2022-09-09T01:22:34;20.53;;;2.10;;
6013;SDS011;3035;49.928;8.410;2022-09-09T01:28:12;3.57;;;1.30;;
6013;SDS011;3035;49.928;8.410;2022-09-09T01:30:40;11.20;;;2.60;;
6013;SDS011;3035;49.928;8.410;2022-09-09T01:33:10;3.83;;;1.50;;
6013;SDS011;3035;49.928;8.410;2022-09-09T01:35:43;15.53;;;1.87;;
6013;SDS011;3035;49.928;8.410;2022-09-09T01:38:35;6.87;;;1.90;;
6013;SDS011;3035;49.928;8.410;2022-09-09T01:41:03;3.93;;;1.90;;
6013;SDS011;3035;49.928;8.410;2022-09-09T01:43:33;6.37;;;1.40;;
6013;SDS011;3035;49.928;8.410;2022-09-09T01:46:01;6.17;;;1.67;;
6013;SDS011;3035;49.928;8.410;2022-09-09T01:48:30;7.03;;;1.23;;
6013;SDS011;3035;49.928;8.410;2022-09-09T01:50:58;9.83;;;1.37;;
6013;SDS011;3035;49.928;8.410;2022-09-09T01:53:27;4.27;;;1.30;;
6013;SDS011;3035;49.928;8.410;2022-09-09T01:56:01;4.90;;;2.43;;
6013;SDS011;3035;49.928;8.410;2022-09-09T02:04:36;9.20;;;1.50;;
6013;SDS011;3035;49.928;8.410;2022-09-09T02:07:12;8.20;;;1.67;;
6013;SDS011;3035;49.928;8.410;2022-09-09T02:09:51;2.77;;;1.27;;
6013;SDS011;3035;49.928;8.410;2022-09-09T02:12:16;7.73;;;1.30;;
6013;SDS011;3035;49.928;8.410;2022-09-09T02:14:49;3.73;;;1.50;;
6013;SDS011;3035;49.928;8.410;2022-09-09T02:17:21;2.40;;;1.43;;
6013;SDS011;3035;49.928;8.410;2022-09-09T02:19:49;1.93;;;1.47;;
6013;SDS011;3035;49.928;8.410;2022-09-09T02:22:17;5.33;;;1.30;;
6013;SDS011;3035;49.928;8.410;2022-09-09T02:24:45;2.30;;;1.10;;
6013;SDS011;3035;49.928;8.410;2022-09-09T02:27:13;6.87;;;1.40;;
6013;SDS011;3035;49.928;8.410;2022-09-09T02:29:42;7.10;;;1.67;;
6013;SDS011;3035;49.928;8.410;2022-09-09T02:32:12;4.37;;;1.50;;
6013;SDS011;3035;49.928;8.410;2022-09-09T02:34:40;5.53;;;1.80;;
6013;SDS011;3035;49.928;8.410;2022-09-09T02:37:08;3.67;;;1.80;;
6013;SDS011;3035;49.928;8.410;2022-09-09T02:39:36;2.13;;;1.70;;
6013;SDS011;3035;49.928;8.410;2022-09-09T02:42:06;3.20;;;1.50;;
6013;SDS011;3035;49.928;8.410;2022-09-09T02:44:34;3.90;;;1.50;;
6013;SDS011;3035;49.928;8.410;2022-09-09T02:49:57;12.87;;;1.67;;
6013;SDS011;3035;49.928;8.410;2022-09-09T02:52:45;3.87;;;1.40;;
6013;SDS011;3035;49.928;8.410;2022-09-09T02:55:24;14.53;;;1.60;;
6013;SDS011;3035;49.928;8.410;2022-09-09T02:57:55;6.53;;;1.70;;
6013;SDS011;3035;49.928;8.410;2022-09-09T03:00:25;11.23;;;1.90;;
6013;SDS011;3035;49.928;8.410;2022-09-09T03:02:53;4.13;;;1.37;;
6013;SDS011;3035;49.928;8.410;2022-09-09T03:05:21;6.20;;;1.10;;
6013;SDS011;3035;49.928;8.410;2022-09-09T03:07:50;4.30;;;1.57;;
6013;SDS011;3035;49.928;8.410;2022-09-09T03:10:18;7.17;;;1.67;;
6013;SDS011;3035;49.928;8.410;2022-09-09T03:12:48;2.13;;;1.50;;
6013;SDS011;3035;49.928;8.410;2022-09-09T03:15:16;7.10;;;1.37;;
6013;SDS011;3035;49.928;8.410;2022-09-09T03:17:44;5.10;;;1.63;;
6013;SDS011;3035;49.928;8.410;2022-09-09T03:20:13;6.10;;;1.80;;
6013;SDS011;3035;49.928;8.410;2022-09-09T03:22:42;2.90;;;1.33;;
6013;SDS011;3035;49.928;8.410;2022-09-09T03:25:10;4.70;;;2.20;;
6013;SDS011;3035;49.928;8.410;2022-09-09T03:27:38;11.07;;;1.80;;
6013;SDS011;3035;49.928;8.410;2022-09-09T03:30:07;9.93;;;1.80;;
6013;SDS011;3035;49.928;8.410;2022-09-09T03:32:37;17.73;;;2.20;;
6013;SDS011;3035;49.928;8.410;2022-09-09T03:35:05;4.30;;;1.40;;
6013;SDS011;3035;49.928;8.410;2022-09-09T03:37:35;2.20;;;1.70;;
6013;SDS011;3035;49.928;8.410;2022-09-09T03:40:03;4.57;;;1.67;;
6013;SDS011;3035;49.928;8.410;2022-09-09T03:42:31;9.83;;;2.30;;
6013;SDS011;3035;49.928;8.410;2022-09-09T03:45:00;8.93;;;2.50;;
6013;SDS011;3035;49.928;8.410;2022-09-09T03:47:30;17.73;;;2.00;;
6013;SDS011;3035;49.928;8.410;2022-09-09T03:49:58;19.10;;;2.20;;
6013;SDS011;3035;49.928;8.410;2022-09-09T03:52:27;4.50;;;1.37;;
6013;SDS011;3035;49.928;8.410;2022-09-09T03:54:56;6.83;;;1.90;;
6013;SDS011;3035;49.928;8.410;2022-09-09T03:57:24;11.40;;;2.10;;
6013;SDS011;3035;49.928;8.410;2022-09-09T03:59:53;11.97;;;1.97;;
6013;SDS011;3035;49.928;8.410;2022-09-09T04:02:21;6.23;;;1.60;;
6013;SDS011;3035;49.928;8.410;2022-09-09T04:04:49;10.17;;;2.20;;
6013;SDS011;3035;49.928;8.410;2022-09-09T04:07:18;9.10;;;2.13;;
6013;SDS011;3035;49.928;8.410;2022-09-09T04:09:48;3.23;;;1.60;;
6013;SDS011;3035;49.928;8.410;2022-09-09T04:12:16;7.07;;;1.90;;
6013;SDS011;3035;49.928;8.410;2022-09-09T04:14:44;5.80;;;1.30;;
6013;SDS011;3035;49.928;8.410;2022-09-09T04:17:12;9.27;;;1.83;;
6013;SDS011;3035;49.928;8.410;2022-09-09T04:19:40;1.80;;;1.17;;
6013;SDS011;3035;49.928;8.410;2022-09-09T04:22:10;18.27;;;1.33;;
6013;SDS011;3035;49.928;8.410;2022-09-09T04:24:39;9.13;;;1.60;;
6013;SDS011;3035;49.928;8.410;2022-09-09T04:27:08;4.80;;;1.30;;
6013;SDS011;3035;49.928;8.410;2022-09-09T04:29:36;4.67;;;1.53;;
6013;SDS011;3035;49.928;8.410;2022-09-09T04:32:04;15.03;;;2.43;;
6013;SDS011;3035;49.928;8.410;2022-09-09T04:34:33;2.93;;;1.60;;
6013;SDS011;3035;49.928;8.410;2022-09-09T04:37:03;9.40;;;1.80;;
6013;SDS011;3035;49.928;8.410;2022-09-09T04:39:31;5.23;;;1.50;;
6013;SDS011;3035;49.928;8.410;2022-09-09T04:41:59;5.20;;;1.60;;
6013;SDS011;3035;49.928;8.410;2022-09-09T04:44:28;3.83;;;1.53;;
6013;SDS011;3035;49.928;8.410;2022-09-09T04:46:58;5.33;;;1.10;;
6013;SDS011;3035;49.928;8.410;2022-09-09T04:49:26;8.63;;;1.30;;
6013;SDS011;3035;49.928;8.410;2022-09-09T04:51:54;10.80;;;1.87;;
6013;SDS011;3035;49.928;8.410;2022-09-09T04:54:22;9.70;;;1.73;;
6013;SDS011;3035;49.928;8.410;2022-09-09T04:56:50;7.37;;;1.77;;
6013;SDS011;3035;49.928;8.410;2022-09-09T04:59:20;5.60;;;2.07;;
6013;SDS011;3035;49.928;8.410;2022-09-09T05:01:49;6.13;;;1.60;;
6013;SDS011;3035;49.928;8.410;2022-09-09T05:04:18;8.30;;;1.60;;
6013;SDS011;3035;49.928;8.410;2022-09-09T05:06:46;4.30;;;1.40;;
6013;SDS011;3035;49.928;8.410;2022-09-09T05:09:14;3.83;;;1.27;;
6013;SDS011;3035;49.928;8.410;2022-09-09T05:11:43;2.33;;;1.70;;
6013;SDS011;3035;49.928;8.410;2022-09-09T05:14:12;15.17;;;1.97;;
6013;SDS011;3035;49.928;8.410;2022-09-09T05:16:40;10.73;;;1.90;;
6013;SDS011;3035;49.928;8.410;2022-09-09T05:19:08;7.50;;;1.80;;
6013;SDS011;3035;49.928;8.410;2022-09-09T05:21:38;1.60;;;1.33;;
6013;SDS011;3035;49.928;8.410;2022-09-09T05:24:06;13.10;;;1.43;;
6013;SDS011;3035;49.928;8.410;2022-09-09T05:26:34;5.17;;;1.47;;
6013;SDS011;3035;49.928;8.410;2022-09-09T05:29:03;5.00;;;1.37;;
6013;SDS011;3035;49.928;8.410;2022-09-09T05:31:32;6.00;;;1.80;;
6013;SDS011;3035;49.928;8.410;2022-09-09T05:34:00;7.53;;;1.67;;
6013;SDS011;3035;49.928;8.410;2022-09-09T05:36:30;5.70;;;1.50;;
6013;SDS011;3035;49.928;8.410;2022-09-09T05:38:58;4.13;;;1.50;;
6013;SDS011;3035;49.928;8.410;2022-09-09T05:41:26;9.50;;;2.60;;
6013;SDS011;3035;49.928;8.410;2022-09-09T05:43:54;1.77;;;1.43;;
6013;SDS011;3035;49.928;8.410;2022-09-09T05:46:23;4.53;;;1.80;;
6013;SDS011;3035;49.928;8.410;2022-09-09T05:48:52;6.57;;;1.67;;
6013;SDS011;3035;49.928;8.410;2022-09-09T05:51:21;8.77;;;1.70;;
6013;SDS011;3035;49.928;8.410;2022-09-09T05:53:48;10.53;;;2.30;;
6013;SDS011;3035;49.928;8.410;2022-09-09T05:56:19;9.57;;;2.23;;
6013;SDS011;3035;49.928;8.410;2022-09-09T05:58:48;6.93;;;2.17;;
6013;SDS011;3035;49.928;8.410;2022-09-09T06:01:17;3.57;;;1.77;;
6013;SDS011;3035;49.928;8.410;2022-09-09T06:03:46;4.80;;;2.10;;
6013;SDS011;3035;49.928;8.410;2022-09-09T06:06:14;9.03;;;1.67;;
6013;SDS011;3035;49.928;8.410;2022-09-09T06:08:43;3.10;;;2.00;;
6013;SDS011;3035;49.928;8.410;2022-09-09T06:11:14;10.20;;;2.40;;
6013;SDS011;3035;49.928;8.410;2022-09-09T06:13:41;12.73;;;2.00;;
6013;SDS011;3035;49.928;8.410;2022-09-09T06:16:10;5.13;;;1.90;;
6013;SDS011;3035;49.928;8.410;2022-09-09T06:18:39;10.17;;;1.73;;
6013;SDS011;3035;49.928;8.410;2022-09-09T06:21:15;5.23;;;1.63;;
6013;SDS011;3035;49.928;8.410;2022-09-09T06:23:45;8.97;;;1.60;;
6013;SDS011;3035;49.928;8.410;2022-09-09T06:26:14;6.10;;;1.90;;
6013;SDS011;3035;49.928;8.410;2022-09-09T06:28:42;11.10;;;1.80;;
6013;SDS011;3035;49.928;8.410;2022-09-09T06:31:11;15.27;;;2.10;;
6013;SDS011;3035;49.928;8.410;2022-09-09T06:33:39;3.10;;;1.77;;
6013;SDS011;3035;49.928;8.410;2022-09-09T06:36:11;2.70;;;1.37;;
6013;SDS011;3035;49.928;8.410;2022-09-09T06:38:38;6.63;;;1.80;;
6013;SDS011;3035;49.928;8.410;2022-09-09T06:41:08;7.40;;;1.40;;
6013;SDS011;3035;49.928;8.410;2022-09-09T06:43:35;13.07;;;1.47;;
6013;SDS011;3035;49.928;8.410;2022-09-09T06:46:06;5.60;;;1.53;;
6013;SDS011;3035;49.928;8.410;2022-09-09T06:48:34;6.50;;;1.47;;
6013;SDS011;3035;49.928;8.410;2022-09-09T06:51:04;8.63;;;1.67;;
6013;SDS011;3035;49.928;8.410;2022-09-09T06:53:33;5.30;;;1.50;;
6013;SDS011;3035;49.928;8.410;2022-09-09T06:58:48;1.87;;;1.20;;
6013;SDS011;3035;49.928;8.410;2022-09-09T07:01:16;2.83;;;1.50;;
6013;SDS011;3035;49.928;8.410;2022-09-09T07:03:46;3.97;;;1.47;;
6013;SDS011;3035;49.928;8.410;2022-09-09T07:06:15;3.00;;;1.50;;
6013;SDS011;3035;49.928;8.410;2022-09-09T07:08:50;5.37;;;1.23;;
6013;SDS011;3035;49.928;8.410;2022-09-09T07:11:27;7.57;;;1.60;;
6013;SDS011;3035;49.928;8.410;2022-09-09T07:13:57;3.27;;;1.70;;
6013;SDS011;3035;49.928;8.410;2022-09-09T07:16:26;3.03;;;1.70;;
6013;SDS011;3035;49.928;8.410;2022-09-09T07:18:54;3.77;;;1.57;;
6013;SDS011;3035;49.928;8.410;2022-09-09T07:21:24;16.93;;;1.53;;
6013;SDS011;3035;49.928;8.410;2022-09-09T07:23:53;4.40;;;1.23;;
6013;SDS011;3035;49.928;8.410;2022-09-09T07:26:22;7.43;;;1.57;;
6013;SDS011;3035;49.928;8.410;2022-09-09T07:28:49;5.83;;;1.37;;
6013;SDS011;3035;49.928;8.410;2022-09-09T07:31:19;2.83;;;1.20;;
6013;SDS011;3035;49.928;8.410;2022-09-09T07:33:48;9.13;;;1.50;;
6013;SDS011;3035;49.928;8.410;2022-09-09T07:36:18;6.60;;;2.00;;
6013;SDS011;3035;49.928;8.410;2022-09-09T07:38:46;5.03;;;2.10;;
6013;SDS011;3035;49.928;8.410;2022-09-09T07:41:16;3.30;;;2.30;;
6013;SDS011;3035;49.928;8.410;2022-09-09T07:43:43;3.47;;;2.00;;
6013;SDS011;3035;49.928;8.410;2022-09-09T07:46:12;6.53;;;1.80;;
6013;SDS011;3035;49.928;8.410;2022-09-09T07:48:44;8.60;;;1.77;;
6013;SDS011;3035;49.928;8.410;2022-09-09T07:51:13;4.23;;;2.03;;
6013;SDS011;3035;49.928;8.410;2022-09-09T07:53:41;5.87;;;2.10;;
6013;SDS011;3035;49.928;8.410;2022-09-09T07:56:10;4.23;;;1.57;;
6013;SDS011;3035;49.928;8.410;2022-09-09T07:58:38;9.03;;;2.10;;
6013;SDS011;3035;49.928;8.410;2022-09-09T08:01:10;6.00;;;1.93;;
6013;SDS011;3035;49.928;8.410;2022-09-09T08:03:39;8.83;;;2.17;;
6013;SDS011;3035;49.928;8.410;2022-09-09T08:06:08;11.50;;;2.20;;
6013;SDS011;3035;49.928;8.410;2022-09-09T08:08:37;9.43;;;2.00;;
6013;SDS011;3035;49.928;8.410;2022-09-09T08:11:06;3.83;;;1.73;;
6013;SDS011;3035;49.928;8.410;2022-09-09T08:13:35;13.00;;;1.50;;
6013;SDS011;3035;49.928;8.410;2022-09-09T08:16:05;7.83;;;1.70;;
6013;SDS011;3035;49.928;8.410;2022-09-09T08:18:33;3.63;;;1.93;;
6013;SDS011;3035;49.928;8.410;2022-09-09T08:21:08;5.90;;;2.30;;
6013;SDS011;3035;49.928;8.410;2022-09-09T08:23:36;8.30;;;2.17;;
6013;SDS011;3035;49.928;8.410;2022-09-09T08:26:06;3.47;;;1.63;;
6013;SDS011;3035;49.928;8.410;2022-09-09T08:28:35;4.43;;;1.70;;
6013;SDS011;3035;49.928;8.410;2022-09-09T08:31:05;9.73;;;1.50;;
6013;SDS011;3035;49.928;8.410;2022-09-09T08:33:43;6.47;;;1.63;;
6013;SDS011;3035;49.928;8.410;2022-09-09T08:36:13;6.67;;;1.73;;
6013;SDS011;3035;49.928;8.410;2022-09-09T08:38:42;3.97;;;1.70;;
6013;SDS011;3035;49.928;8.410;2022-09-09T08:44:07;6.10;;;1.43;;
6013;SDS011;3035;49.928;8.410;2022-09-09T08:46:38;4.37;;;1.50;;
6013;SDS011;3035;49.928;8.410;2022-09-09T08:49:10;6.10;;;1.43;;
6013;SDS011;3035;49.928;8.410;2022-09-09T08:52:00;8.33;;;1.67;;
6013;SDS011;3035;49.928;8.410;2022-09-09T08:54:30;7.73;;;1.40;;
6013;SDS011;3035;49.928;8.410;2022-09-09T08:56:57;6.63;;;1.67;;
6013;SDS011;3035;49.928;8.410;2022-09-09T08:59:26;8.97;;;1.87;;
6013;SDS011;3035;49.928;8.410;2022-09-09T09:01:59;4.90;;;1.60;;
6013;SDS011;3035;49.928;8.410;2022-09-09T09:04:45;5.03;;;1.73;;
6013;SDS011;3035;49.928;8.410;2022-09-09T09:10:19;6.07;;;2.00;;
6013;SDS011;3035;49.928;8.410;2022-09-09T09:13:02;13.30;;;1.80;;
6013;SDS011;3035;49.928;8.410;2022-09-09T09:15:31;4.90;;;1.60;;
6013;SDS011;3035;49.928;8.410;2022-09-09T09:18:03;3.87;;;1.87;;
6013;SDS011;3035;49.928;8.410;2022-09-09T09:23:23;6.27;;;1.37;;
6013;SDS011;3035;49.928;8.410;2022-09-09T09:25:50;15.43;;;1.67;;
6013;SDS011;3035;49.928;8.410;2022-09-09T09:28:22;7.97;;;1.53;;
6013;SDS011;3035;49.928;8.410;2022-09-09T09:30:52;3.20;;;1.50;;
6013;SDS011;3035;49.928;8.410;2022-09-09T09:33:24;8.37;;;1.67;;
6013;SDS011;3035;49.928;8.410;2022-09-09T09:35:56;7.50;;;1.93;;
6013;SDS011;3035;49.928;8.410;2022-09-09T09:38:25;5.53;;;1.67;;
6013;SDS011;3035;49.928;8.410;2022-09-09T09:40:54;4.67;;;1.70;;
6013;SDS011;3035;49.928;8.410;2022-09-09T09:43:25;3.30;;;1.73;;
6013;SDS011;3035;49.928;8.410;2022-09-09T09:45:56;9.53;;;1.40;;
6013;SDS011;3035;49.928;8.410;2022-09-09T09:48:26;10.17;;;1.67;;
6013;SDS011;3035;49.928;8.410;2022-09-09T09:51:02;3.57;;;1.50;;
6013;SDS011;3035;49.928;8.410;2022-09-09T09:53:30;6.90;;;1.43;;
6013;SDS011;3035;49.928;8.410;2022-09-09T09:56:00;4.23;;;1.20;;
6013;SDS011;3035;49.928;8.410;2022-09-09T09:58:30;7.07;;;1.90;;
6013;SDS011;3035;49.928;8.410;2022-09-09T10:00:58;7.00;;;1.57;;
6013;SDS011;3035;49.928;8.410;2022-09-09T10:03:27;6.97;;;1.63;;
6013;SDS011;3035;49.928;8.410;2022-09-09T10:05:57;7.17;;;1.80;;
6013;SDS011;3035;49.928;8.410;2022-09-09T10:08:27;6.00;;;1.40;;
6013;SDS011;3035;49.928;8.410;2022-09-09T10:10:59;4.90;;;1.40;;
6013;SDS011;3035;49.928;8.410;2022-09-09T10:13:40;3.50;;;1.50;;
6013;SDS011;3035;49.928;8.410;2022-09-09T10:16:16;7.60;;;1.63;;
6013;SDS011;3035;49.928;8.410;2022-09-09T10:18:56;3.63;;;1.43;;
6013;SDS011;3035;49.928;8.410;2022-09-09T10:21:29;4.03;;;1.30;;
6013;SDS011;3035;49.928;8.410;2022-09-09T10:24:17;11.47;;;2.30;;
6013;SDS011;3035;49.928;8.410;2022-09-09T10:26:59;5.57;;;1.60;;
6013;SDS011;3035;49.928;8.410;2022-09-09T10:32:36;6.43;;;1.70;;
6013;SDS011;3035;49.928;8.410;2022-09-09T10:35:29;3.37;;;1.60;;
6013;SDS011;3035;49.928;8.410;2022-09-09T10:38:05;4.83;;;1.70;;
6013;SDS011;3035;49.928;8.410;2022-09-09T10:43:53;4.60;;;1.50;;
6013;SDS011;3035;49.928;8.410;2022-09-09T10:46:23;3.00;;;1.27;;
6013;SDS011;3035;49.928;8.410;2022-09-09T10:49:13;9.77;;;1.47;;
6013;SDS011;3035;49.928;8.410;2022-09-09T10:54:43;17.30;;;1.33;;
6013;SDS011;3035;49.928;8.410;2022-09-09T10:57:31;6.10;;;1.70;;
6013;SDS011;3035;49.928;8.410;2022-09-09T11:00:03;4.33;;;1.50;;
6013;SDS011;3035;49.928;8.410;2022-09-09T11:02:34;5.40;;;1.70;;
6013;SDS011;3035;49.928;8.410;2022-09-09T11:05:03;5.80;;;1.50;;
6013;SDS011;3035;49.928;8.410;2022-09-09T11:07:36;3.17;;;1.20;;
6013;SDS011;3035;49.928;8.410;2022-09-09T11:10:06;2.80;;;1.10;;
6013;SDS011;3035;49.928;8.410;2022-09-09T11:12:35;5.00;;;1.30;;
6013;SDS011;3035;49.928;8.410;2022-09-09T11:15:06;2.83;;;1.37;;
6013;SDS011;3035;49.928;8.410;2022-09-09T11:17:36;8.67;;;1.30;;
6013;SDS011;3035;49.928;8.410;2022-09-09T11:20:04;4.80;;;1.30;;
6013;SDS011;3035;49.928;8.410;2022-09-09T11:22:34;3.80;;;1.20;;
6013;SDS011;3035;49.928;8.410;2022-09-09T11:25:05;4.07;;;1.20;;
6013;SDS011;3035;49.928;8.410;2022-09-09T11:27:43;2.60;;;1.13;;
6013;SDS011;3035;49.928;8.410;2022-09-09T11:30:26;4.37;;;1.10;;
6013;SDS011;3035;49.928;8.410;2022-09-09T11:36:08;4.30;;;0.93;;
6013;SDS011;3035;49.928;8.410;2022-09-09T11:38:44;3.50;;;1.30;;
6013;SDS011;3035;49.928;8.410;2022-09-09T11:41:19;5.50;;;1.23;;
6013;SDS011;3035;49.928;8.410;2022-09-09T11:43:47;3.73;;;1.07;;
6013;SDS011;3035;49.928;8.410;2022-09-09T11:46:16;5.83;;;1.10;;
6013;SDS011;3035;49.928;8.410;2022-09-09T11:48:56;6.23;;;0.90;;
6013;SDS011;3035;49.928;8.410;2022-09-09T11:51:30;4.20;;;1.20;;
6013;SDS011;3035;49.928;8.410;2022-09-09T11:53:59;5.40;;;1.30;;
6013;SDS011;3035;49.928;8.410;2022-09-09T11:56:29;8.77;;;1.27;;
6013;SDS011;3035;49.928;8.410;2022-09-09T11:58:59;4.70;;;1.50;;
6013;SDS011;3035;49.928;8.410;2022-09-09T12:01:27;12.00;;;1.60;;
6013;SDS011;3035;49.928;8.410;2022-09-09T12:04:01;3.30;;;1.27;;
6013;SDS011;3035;49.928;8.410;2022-09-09T12:06:33;5.30;;;1.13;;
6013;SDS011;3035;49.928;8.410;2022-09-09T12:09:08;5.70;;;1.30;;
6013;SDS011;3035;49.928;8.410;2022-09-09T12:11:38;2.33;;;1.30;;
6013;SDS011;3035;49.928;8.410;2022-09-09T12:14:18;4.90;;;1.00;;
6013;SDS011;3035;49.928;8.410;2022-09-09T12:16:36;1.53;;;1.00;;
6013;SDS011;3035;49.928;8.410;2022-09-09T12:19:06;3.73;;;1.10;;
6013;SDS011;3035;49.928;8.410;2022-09-09T12:21:56;4.20;;;1.30;;
6013;SDS011;3035;49.928;8.410;2022-09-09T12:24:46;3.10;;;0.90;;
6013;SDS011;3035;49.928;8.410;2022-09-09T12:30:07;4.80;;;1.23;;
6013;SDS011;3035;49.928;8.410;2022-09-09T12:32:36;4.50;;;1.00;;
6013;SDS011;3035;49.928;8.410;2022-09-09T12:35:09;4.30;;;1.10;;
6013;SDS011;3035;49.928;8.410;2022-09-09T12:40:25;1.80;;;0.83;;
6013;SDS011;3035;49.928;8.410;2022-09-09T12:42:54;2.83;;;0.83;;
6013;SDS011;3035;49.928;8.410;2022-09-09T12:45:23;1.20;;;0.77;;
6013;SDS011;3035;49.928;8.410;2022-09-09T12:47:54;1.10;;;0.80;;
6013;SDS011;3035;49.928;8.410;2022-09-09T12:50:24;3.47;;;0.80;;
6013;SDS011;3035;49.928;8.410;2022-09-09T12:52:52;3.27;;;1.27;;
6013;SDS011;3035;49.928;8.410;2022-09-09T12:55:25;4.87;;;1.03;;
6013;SDS011;3035;49.928;8.410;2022-09-09T12:57:52;1.20;;;0.70;;
6013;SDS011;3035;49.928;8.410;2022-09-09T13:00:22;1.67;;;0.77;;
6013;SDS011;3035;49.928;8.410;2022-09-09T13:02:53;1.53;;;0.80;;
6013;SDS011;3035;49.928;8.410;2022-09-09T13:05:22;2.03;;;0.70;;
6013;SDS011;3035;49.928;8.410;2022-09-09T13:07:50;2.17;;;0.80;;
6013;SDS011;3035;49.928;8.410;2022-09-09T13:10:22;1.40;;;0.70;;
6013;SDS011;3035;49.928;8.410;2022-09-09T13:12:50;1.20;;;0.80;;
6013;SDS011;3035;49.928;8.410;2022-09-09T13:15:20;2.00;;;0.80;;
6013;SDS011;3035;49.928;8.410;2022-09-09T13:17:49;1.87;;;0.80;;
6013;SDS011;3035;49.928;8.410;2022-09-09T13:20:21;1.47;;;0.70;;
6013;SDS011;3035;49.928;8.410;2022-09-09T13:22:50;4.83;;;0.77;;
6013;SDS011;3035;49.928;8.410;2022-09-09T13:25:20;1.50;;;0.70;;
6013;SDS011;3035;49.928;8.410;2022-09-09T13:27:53;1.07;;;0.70;;
6013;SDS011;3035;49.928;8.410;2022-09-09T13:30:30;1.00;;;0.60;;
6013;SDS011;3035;49.928;8.410;2022-09-09T13:33:06;4.37;;;0.67;;
6013;SDS011;3035;49.928;8.410;2022-09-09T13:35:54;5.97;;;1.00;;
6013;SDS011;3035;49.928;8.410;2022-09-09T13:38:22;2.50;;;0.80;;
6013;SDS011;3035;49.928;8.410;2022-09-09T13:40:53;1.70;;;0.80;;
6013;SDS011;3035;49.928;8.410;2022-09-09T13:43:23;5.83;;;0.90;;
6013;SDS011;3035;49.928;8.410;2022-09-09T13:46:01;2.70;;;0.80;;
6013;SDS011;3035;49.928;8.410;2022-09-09T13:48:29;2.07;;;0.80;;
6013;SDS011;3035;49.928;8.410;2022-09-09T13:50:59;5.73;;;0.93;;
6013;SDS011;3035;49.928;8.410;2022-09-09T13:53:27;1.97;;;0.80;;
6013;SDS011;3035;49.928;8.410;2022-09-09T13:55:55;1.30;;;0.70;;
6013;SDS011;3035;49.928;8.410;2022-09-09T13:58:24;2.90;;;1.00;;
6013;SDS011;3035;49.928;8.410;2022-09-09T14:00:52;1.20;;;0.70;;
6013;SDS011;3035;49.928;8.410;2022-09-09T14:03:20;3.40;;;1.00;;
6013;SDS011;3035;49.928;8.410;2022-09-09T14:05:49;3.53;;;0.90;;
6013;SDS011;3035;49.928;8.410;2022-09-09T14:08:20;3.67;;;1.10;;
6013;SDS011;3035;49.928;8.410;2022-09-09T14:10:48;1.50;;;0.93;;
6013;SDS011;3035;49.928;8.410;2022-09-09T14:13:17;2.50;;;0.90;;
6013;SDS011;3035;49.928;8.410;2022-09-09T14:15:47;6.20;;;1.23;;
6013;SDS011;3035;49.928;8.410;2022-09-09T14:18:15;3.17;;;0.90;;
6013;SDS011;3035;49.928;8.410;2022-09-09T14:20:44;5.53;;;0.97;;
6013;SDS011;3035;49.928;8.410;2022-09-09T14:23:12;1.90;;;1.03;;
6013;SDS011;3035;49.928;8.410;2022-09-09T14:25:41;3.27;;;0.90;;
6013;SDS011;3035;49.928;8.410;2022-09-09T14:28:11;3.87;;;0.87;;
6013;SDS011;3035;49.928;8.410;2022-09-09T14:30:39;2.80;;;1.30;;
6013;SDS011;3035;49.928;8.410;2022-09-09T14:33:09;6.47;;;1.20;;
6013;SDS011;3035;49.928;8.410;2022-09-09T14:35:36;1.30;;;0.70;;
6013;SDS011;3035;49.928;8.410;2022-09-09T14:38:05;3.03;;;1.10;;
6013;SDS011;3035;49.928;8.410;2022-09-09T14:40:34;3.87;;;1.17;;
6013;SDS011;3035;49.928;8.410;2022-09-09T14:43:04;1.83;;;0.83;;
6013;SDS011;3035;49.928;8.410;2022-09-09T14:45:32;3.73;;;1.30;;
6013;SDS011;3035;49.928;8.410;2022-09-09T14:48:00;5.73;;;1.30;;
6013;SDS011;3035;49.928;8.410;2022-09-09T14:50:28;3.10;;;1.07;;
6013;SDS011;3035;49.928;8.410;2022-09-09T14:52:57;4.13;;;1.20;;
6013;SDS011;3035;49.928;8.410;2022-09-09T14:55:26;6.97;;;1.17;;
6013;SDS011;3035;49.928;8.410;2022-09-09T14:57:55;13.63;;;1.43;;
6013;SDS011;3035;49.928;8.410;2022-09-09T15:00:23;3.63;;;1.13;;
6013;SDS011;3035;49.928;8.410;2022-09-09T15:02:52;5.07;;;1.47;;
6013;SDS011;3035;49.928;8.410;2022-09-09T15:05:20;4.70;;;1.53;;
6013;SDS011;3035;49.928;8.410;2022-09-09T15:07:48;2.97;;;0.97;;
6013;SDS011;3035;49.928;8.410;2022-09-09T15:10:17;3.83;;;1.20;;
6013;SDS011;3035;49.928;8.410;2022-09-09T15:12:45;5.67;;;1.30;;
6013;SDS011;3035;49.928;8.410;2022-09-09T15:15:14;4.97;;;1.07;;
6013;SDS011;3035;49.928;8.410;2022-09-09T15:17:43;3.57;;;1.00;;
6013;SDS011;3035;49.928;8.410;2022-09-09T15:20:11;4.20;;;0.80;;
6013;SDS011;3035;49.928;8.410;2022-09-09T15:22:40;5.60;;;1.20;;
6013;SDS011;3035;49.928;8.410;2022-09-09T15:25:09;2.70;;;1.10;;
6013;SDS011;3035;49.928;8.410;2022-09-09T15:27:37;9.30;;;1.33;;
6013;SDS011;3035;49.928;8.410;2022-09-09T15:30:06;4.83;;;1.90;;
6013;SDS011;3035;49.928;8.410;2022-09-09T15:32:35;2.90;;;0.80;;
6013;SDS011;3035;49.928;8.410;2022-09-09T15:35:04;5.60;;;1.30;;
6013;SDS011;3035;49.928;8.410;2022-09-09T15:37:33;3.50;;;1.00;;
6013;SDS011;3035;49.928;8.410;2022-09-09T15:40:01;4.63;;;1.10;;
6013;SDS011;3035;49.928;8.410;2022-09-09T15:42:29;5.20;;;1.30;;
6013;SDS011;3035;49.928;8.410;2022-09-09T15:44:57;1.40;;;1.00;;
6013;SDS011;3035;49.928;8.410;2022-09-09T15:47:26;2.07;;;1.00;;
6013;SDS011;3035;49.928;8.410;2022-09-09T15:49:55;12.13;;;1.80;;
6013;SDS011;3035;49.928;8.410;2022-09-09T15:52:23;6.63;;;1.00;;
6013;SDS011;3035;49.928;8.410;2022-09-09T15:54:51;5.43;;;1.17;;
6013;SDS011;3035;49.928;8.410;2022-09-09T15:57:20;1.93;;;1.00;;
6013;SDS011;3035;49.928;8.410;2022-09-09T15:59:49;4.00;;;1.00;;
6013;SDS011;3035;49.928;8.410;2022-09-09T16:02:17;5.80;;;1.03;;
6013;SDS011;3035;49.928;8.410;2022-09-09T16:04:46;6.53;;;1.13;;
6013;SDS011;3035;49.928;8.410;2022-09-09T16:07:14;3.20;;;1.10;;
6013;SDS011;3035;49.928;8.410;2022-09-09T16:09:43;3.37;;;1.03;;
6013;SDS011;3035;49.928;8.410;2022-09-09T16:12:11;6.80;;;1.13;;
6013;SDS011;3035;49.928;8.410;2022-09-09T16:14:40;4.83;;;1.00;;
6013;SDS011;3035;49.928;8.410;2022-09-09T16:17:10;1.80;;;0.90;;
6013;SDS011;3035;49.928;8.410;2022-09-09T16:19:38;2.60;;;1.30;;
6013;SDS011;3035;49.928;8.410;2022-09-09T16:22:06;3.33;;;1.10;;
6013;SDS011;3035;49.928;8.410;2022-09-09T16:24:34;1.67;;;1.00;;
6013;SDS011;3035;49.928;8.410;2022-09-09T16:27:03;5.93;;;0.90;;
6013;SDS011;3035;49.928;8.410;2022-09-09T16:29:32;5.83;;;0.90;;
6013;SDS011;3035;49.928;8.410;2022-09-09T16:32:01;7.33;;;1.20;;
6013;SDS011;3035;49.928;8.410;2022-09-09T16:34:29;1.77;;;1.07;;
6013;SDS011;3035;49.928;8.410;2022-09-09T16:36:58;2.83;;;1.30;;